Time;durP1;ratioP1;P1;durP2;ratioP2;P2;SDS_P1;SDS_P2;PMS_P1;PMS_P2;Temp;Humidity;BMP_temperature;BMP_pressure;BME280_temperature;BME280_humidity;BME280_pressure;Samples;Min_cycle;Max_cycle;Signal;HPM_P1;HPM_P2
2023/12/12 00:01:58;;;;;;;3.83;1.53;;;8.70;99.90;;;;;;5015038;28;20682;-85
2023/12/12 00:04:23;;;;;;;0.33;0.33;;;8.80;99.90;;;;;;5014986;28;20611;-87
2023/12/12 00:06:49;;;;;;;0.70;0.70;;;8.70;99.90;;;;;;5015924;28;20194;-86
2023/12/12 00:09:15;;;;;;;0.30;0.30;;;8.70;99.90;;;;;;5015045;28;20227;-86
2023/12/12 00:11:40;;;;;;;3.43;0.57;;;8.70;99.90;;;;;;4998624;28;20309;-86
2023/12/12 00:14:09;;;;;;;0.20;0.20;;;8.70;99.90;;;;;;4999230;28;20305;-88
2023/12/12 00:16:36;;;;;;;0.10;0.10;;;8.60;99.90;;;;;;5013767;28;20757;-87
2023/12/12 00:19:02;;;;;;;0.60;0.60;;;8.70;99.90;;;;;;4999132;28;20195;-87
2023/12/12 00:21:28;;;;;;;1.70;0.50;;;8.70;99.90;;;;;;5013677;28;20231;-87
2023/12/12 00:23:53;;;;;;;1.33;1.23;;;8.60;99.90;;;;;;5009391;28;20237;-87
2023/12/12 00:26:19;;;;;;;0.60;0.60;;;8.50;99.90;;;;;;5002425;28;20674;-87
2023/12/12 00:28:45;;;;;;;1.17;1.07;;;8.50;99.90;;;;;;5035535;28;20238;-87
2023/12/12 00:31:11;;;;;;;4.23;0.40;;;8.40;99.90;;;;;;5019837;28;20211;-86
2023/12/12 00:33:36;;;;;;;1.20;0.67;;;8.50;99.90;;;;;;5002645;28;20722;-86
2023/12/12 00:36:02;;;;;;;0.30;0.30;;;8.40;99.90;;;;;;5002248;28;20237;-87
2023/12/12 00:38:29;;;;;;;0.20;0.20;;;8.50;99.90;;;;;;5002283;28;20565;-87
2023/12/12 00:40:56;;;;;;;0.20;0.20;;;8.50;99.90;;;;;;5034632;28;20242;-87
2023/12/12 00:43:23;;;;;;;0.73;0.73;;;8.50;99.90;;;;;;5034907;28;20189;-86
2023/12/12 00:45:49;;;;;;;0.73;0.73;;;8.40;99.90;;;;;;5019078;28;20646;-85
2023/12/12 00:48:15;;;;;;;6.30;0.40;;;8.40;99.90;;;;;;5018160;28;20277;-86
2023/12/12 00:50:41;;;;;;;4.47;0.60;;;8.50;99.90;;;;;;5018081;28;20218;-85
2023/12/12 00:53:07;;;;;;;1.03;0.87;;;8.40;99.90;;;;;;5034405;28;20664;-86
2023/12/12 00:55:32;;;;;;;0.20;0.20;;;8.40;99.90;;;;;;5034650;28;20627;-86
2023/12/12 00:57:58;;;;;;;0.40;0.40;;;8.30;99.90;;;;;;5018335;28;20175;-86
2023/12/12 01:00:24;;;;;;;2.30;1.37;;;8.40;99.90;;;;;;5034737;28;20269;-86
2023/12/12 01:02:50;;;;;;;0.70;0.60;;;8.20;99.90;;;;;;5035122;28;20218;-88
2023/12/12 01:05:16;;;;;;;0.63;0.60;;;8.30;99.90;;;;;;5002002;28;20647;-87
2023/12/12 01:07:41;;;;;;;4.07;0.47;;;8.10;99.90;;;;;;5034358;28;20219;-87
2023/12/12 01:10:08;;;;;;;0.30;0.30;;;8.20;99.90;;;;;;5018310;28;20186;-87
2023/12/12 01:12:34;;;;;;;0.20;0.20;;;8.10;99.90;;;;;;5034523;28;20646;-87
2023/12/12 01:14:59;;;;;;;0.37;0.37;;;8.00;99.90;;;;;;5020385;28;20714;-87
2023/12/12 01:17:26;;;;;;;7.10;0.57;;;7.90;99.90;;;;;;5004582;28;20352;-87
2023/12/12 01:19:52;;;;;;;0.37;0.37;;;7.90;99.90;;;;;;5037423;28;20251;-87
2023/12/12 01:22:18;;;;;;;0.10;0.10;;;7.80;99.90;;;;;;5037642;28;20261;-87
2023/12/12 01:24:44;;;;;;;0.23;0.23;;;7.80;99.90;;;;;;5038143;28;20271;-87
2023/12/12 01:27:10;;;;;;;0.80;0.73;;;7.70;99.90;;;;;;5037689;28;20275;-87
2023/12/12 01:29:36;;;;;;;0.20;0.20;;;7.70;99.90;;;;;;5004830;28;20224;-87
2023/12/12 01:32:02;;;;;;;0.30;0.30;;;7.60;99.90;;;;;;5020839;28;20244;-87
2023/12/12 01:34:28;;;;;;;0.20;0.20;;;7.70;99.90;;;;;;5037391;28;20282;-87
2023/12/12 01:36:54;;;;;;;0.67;0.67;;;7.60;99.90;;;;;;5020509;28;20616;-86
2023/12/12 01:39:19;;;;;;;0.50;0.50;;;7.50;99.90;;;;;;5021211;28;20222;-87
2023/12/12 01:41:49;;;;;;;11.03;0.47;;;7.60;99.90;;;;;;5037003;28;20665;-85
2023/12/12 01:44:15;;;;;;;0.13;0.13;;;7.50;99.90;;;;;;5037156;28;20221;-86
2023/12/12 01:46:45;;;;;;;0.13;0.13;;;7.40;99.90;;;;;;5036857;28;20596;-85
2023/12/12 01:49:12;;;;;;;13.10;0.70;;;7.50;99.90;;;;;;5055054;28;20181;-85
2023/12/12 01:51:38;;;;;;;0.20;0.20;;;7.40;99.90;;;;;;5020832;28;20292;-85
2023/12/12 01:54:06;;;;;;;0.57;0.57;;;7.40;99.90;;;;;;5004719;28;20213;-86
2023/12/12 01:56:33;;;;;;;1.10;0.93;;;7.40;99.90;;;;;;5020315;28;20687;-86
2023/12/12 01:59:00;;;;;;;0.20;0.20;;;7.20;99.90;;;;;;5036651;28;20224;-85
2023/12/12 02:01:29;;;;;;;0.20;0.20;;;7.20;99.90;;;;;;5036611;28;20223;-87
2023/12/12 02:03:57;;;;;;;0.27;0.27;;;7.30;99.90;;;;;;5037295;28;20174;-85
2023/12/12 02:06:23;;;;;;;0.20;0.20;;;7.10;99.90;;;;;;5054445;28;20356;-86
2023/12/12 02:08:52;;;;;;;0.30;0.30;;;7.20;99.90;;;;;;5036439;28;20238;-86
2023/12/12 02:11:18;;;;;;;0.40;0.40;;;7.10;99.90;;;;;;5020513;28;20579;-86
2023/12/12 02:13:45;;;;;;;0.20;0.20;;;7.00;99.90;;;;;;5054541;28;20221;-86
2023/12/12 02:16:12;;;;;;;0.57;0.57;;;6.90;99.90;;;;;;5020541;28;20731;-86
2023/12/12 02:18:37;;;;;;;3.20;0.97;;;6.90;99.90;;;;;;5036952;28;20236;-87
2023/12/12 02:21:04;;;;;;;0.20;0.20;;;6.90;99.90;;;;;;5021976;28;20203;-87
2023/12/12 02:23:30;;;;;;;0.30;0.30;;;7.00;99.90;;;;;;5016511;28;20217;-87
2023/12/12 02:25:58;;;;;;;0.40;0.40;;;6.80;99.90;;;;;;5039581;28;20224;-86
2023/12/12 02:28:23;;;;;;;0.20;0.20;;;7.00;99.90;;;;;;5053879;28;20260;-86
2023/12/12 02:30:50;;;;;;;0.40;0.40;;;6.80;99.90;;;;;;5004527;28;20242;-88
2023/12/12 02:33:16;;;;;;;0.30;0.30;;;6.90;99.90;;;;;;5010927;28;20226;-87
2023/12/12 02:35:42;;;;;;;0.33;0.33;;;6.80;99.90;;;;;;5036311;28;20616;-87
2023/12/12 02:38:07;;;;;;;0.20;0.20;;;6.80;99.90;;;;;;5036315;28;20244;-88
2023/12/12 02:40:33;;;;;;;0.30;0.30;;;6.80;99.90;;;;;;5019611;28;20174;-87
2023/12/12 02:42:59;;;;;;;0.20;0.20;;;6.80;99.90;;;;;;5004564;28;20243;-85
2023/12/12 02:45:25;;;;;;;0.37;0.37;;;6.70;99.90;;;;;;5003449;28;20218;-86
2023/12/12 02:47:51;;;;;;;0.30;0.30;;;6.70;99.90;;;;;;5019605;28;20296;-86
2023/12/12 02:50:17;;;;;;;0.20;0.20;;;6.60;99.90;;;;;;5003215;28;20214;-87
2023/12/12 02:52:43;;;;;;;0.20;0.20;;;6.60;99.90;;;;;;5032333;28;20214;-88
2023/12/12 02:55:09;;;;;;;0.30;0.30;;;6.60;99.90;;;;;;5016410;28;20201;-88
2023/12/12 02:57:35;;;;;;;0.60;0.60;;;6.50;99.90;;;;;;5016665;28;20242;-84
2023/12/12 03:00:01;;;;;;;0.30;0.30;;;6.40;99.90;;;;;;5032210;28;20618;-85
2023/12/12 03:02:27;;;;;;;0.20;0.20;;;6.30;99.90;;;;;;5034102;28;20244;-86
2023/12/12 03:04:53;;;;;;;0.20;0.20;;;6.30;99.90;;;;;;5016285;28;20716;-89
2023/12/12 03:07:19;;;;;;;0.50;0.50;;;6.20;99.90;;;;;;5000145;28;20183;-87
2023/12/12 03:09:45;;;;;;;0.30;0.30;;;6.30;99.90;;;;;;4999965;28;20257;-86
2023/12/12 03:12:11;;;;;;;0.40;0.40;;;6.20;99.90;;;;;;4999467;28;20249;-87
2023/12/12 03:14:37;;;;;;;0.20;0.20;;;6.10;99.90;;;;;;4999247;28;20210;-88
2023/12/12 03:17:03;;;;;;;0.30;0.30;;;6.20;99.90;;;;;;5015978;28;20238;-87
2023/12/12 03:19:29;;;;;;;5.83;0.77;;;6.10;99.90;;;;;;5015639;28;20182;-86
2023/12/12 03:21:55;;;;;;;0.83;0.47;;;6.00;99.90;;;;;;5000131;28;20652;-88
2023/12/12 03:24:20;;;;;;;0.20;0.20;;;5.90;99.90;;;;;;5015424;28;20211;-87
2023/12/12 03:26:46;;;;;;;0.60;0.50;;;5.80;99.90;;;;;;4999529;28;20679;-85
2023/12/12 03:29:12;;;;;;;0.30;0.30;;;5.70;99.90;;;;;;4999352;28;20241;-87
2023/12/12 03:31:39;;;;;;;0.30;0.30;;;5.70;99.90;;;;;;5016232;28;20215;-87
2023/12/12 03:34:05;;;;;;;0.60;0.60;;;5.70;99.90;;;;;;5033982;28;20617;-87
2023/12/12 03:36:31;;;;;;;0.47;0.47;;;5.60;99.90;;;;;;5015936;28;20230;-87
2023/12/12 03:38:57;;;;;;;0.60;0.60;;;5.60;99.90;;;;;;4999331;28;20569;-88
2023/12/12 03:41:27;;;;;;;0.30;0.30;;;5.40;99.90;;;;;;4999428;28;20223;-87
2023/12/12 03:43:53;;;;;;;2.40;1.63;;;5.50;99.90;;;;;;5015427;28;20245;-87
2023/12/12 03:46:20;;;;;;;0.30;0.30;;;5.30;99.90;;;;;;5015619;28;20572;-88
2023/12/12 03:48:46;;;;;;;0.57;0.57;;;5.40;99.90;;;;;;5015845;28;20178;-87
2023/12/12 03:51:12;;;;;;;0.57;0.57;;;5.20;99.90;;;;;;5033545;28;20276;-87
2023/12/12 03:53:39;;;;;;;0.40;0.40;;;5.20;99.90;;;;;;4999355;28;20612;-86
2023/12/12 03:56:06;;;;;;;0.20;0.20;;;5.30;99.90;;;;;;5032049;28;20333;-87
2023/12/12 03:58:32;;;;;;;0.50;0.50;;;5.30;99.90;;;;;;5015791;28;20183;-87
2023/12/12 04:00:58;;;;;;;0.77;0.77;;;5.20;99.90;;;;;;5019718;28;20553;-87
2023/12/12 04:03:24;;;;;;;0.77;0.77;;;5.20;99.90;;;;;;5019522;28;20236;-87
2023/12/12 04:05:49;;;;;;;0.20;0.20;;;5.30;99.90;;;;;;5019720;28;20215;-86
2023/12/12 04:08:15;;;;;;;0.23;0.23;;;5.20;99.90;;;;;;5007606;28;20253;-87
2023/12/12 04:10:41;;;;;;;0.33;0.33;;;5.40;99.90;;;;;;5019355;28;20214;-87
2023/12/12 04:13:07;;;;;;;0.30;0.30;;;5.40;99.90;;;;;;5036215;28;20171;-87
2023/12/12 04:15:33;;;;;;;0.63;0.63;;;5.40;99.90;;;;;;5037036;28;20597;-87
2023/12/12 04:17:59;;;;;;;0.30;0.30;;;5.40;99.90;;;;;;5038727;28;20230;-87
2023/12/12 04:20:24;;;;;;;0.30;0.30;;;5.40;99.90;;;;;;5022352;28;20214;-87
2023/12/12 04:22:50;;;;;;;0.83;0.83;;;5.40;99.90;;;;;;5022254;28;20217;-88
2023/12/12 04:25:16;;;;;;;0.57;0.47;;;5.40;99.90;;;;;;5039385;28;20265;-87
2023/12/12 04:27:42;;;;;;;0.50;0.47;;;5.50;99.90;;;;;;5039369;28;20213;-87
2023/12/12 04:30:08;;;;;;;0.50;0.50;;;5.50;99.90;;;;;;5022016;28;20277;-88
2023/12/12 04:32:34;;;;;;;0.77;0.77;;;5.50;99.90;;;;;;5006199;28;20222;-87
2023/12/12 04:35:02;;;;;;;0.30;0.30;;;5.60;99.90;;;;;;5038328;28;20218;-87
2023/12/12 04:37:28;;;;;;;0.37;0.37;;;5.60;99.90;;;;;;5055718;28;20683;-87
2023/12/12 04:39:54;;;;;;;0.40;0.40;;;5.80;99.90;;;;;;5022253;28;20179;-86
2023/12/12 04:42:20;;;;;;;0.30;0.30;;;5.90;99.90;;;;;;5038686;28;20299;-86
2023/12/12 04:44:45;;;;;;;0.37;0.37;;;5.70;99.90;;;;;;5038856;28;20647;-86
2023/12/12 04:47:13;;;;;;;0.27;0.27;;;5.80;99.90;;;;;;5022164;28;20584;-87
2023/12/12 04:49:38;;;;;;;0.50;0.50;;;5.90;99.90;;;;;;5005950;28;20217;-86
2023/12/12 04:52:04;;;;;;;0.40;0.40;;;6.00;99.90;;;;;;5005885;28;20181;-87
2023/12/12 04:54:30;;;;;;;0.27;0.27;;;6.00;99.90;;;;;;5021681;28;20292;-87
2023/12/12 04:56:56;;;;;;;1.63;1.33;;;5.90;99.90;;;;;;5037979;28;20237;-87
2023/12/12 04:59:22;;;;;;;0.50;0.50;;;5.90;99.90;;;;;;5038003;28;20226;-88
2023/12/12 05:01:49;;;;;;;0.73;0.33;;;5.90;99.90;;;;;;5021298;28;20218;-88
2023/12/12 05:04:14;;;;;;;0.30;0.30;;;6.10;99.90;;;;;;5021762;28;20186;-87
2023/12/12 05:06:40;;;;;;;1.10;0.53;;;6.00;99.90;;;;;;5055401;28;20226;-87
2023/12/12 05:09:06;;;;;;;1.23;1.17;;;6.00;99.90;;;;;;5005090;28;20264;-87
2023/12/12 05:11:32;;;;;;;0.47;0.47;;;6.10;99.90;;;;;;5020654;28;20218;-87
2023/12/12 05:13:58;;;;;;;0.40;0.40;;;6.00;99.90;;;;;;5020969;28;20229;-87
2023/12/12 05:16:24;;;;;;;0.40;0.40;;;5.90;99.90;;;;;;5020450;28;20234;-86
2023/12/12 05:18:50;;;;;;;0.50;0.50;;;6.00;99.90;;;;;;5037852;28;20190;-87
2023/12/12 05:21:20;;;;;;;0.80;0.80;;;6.00;99.90;;;;;;5021049;28;20209;-87
2023/12/12 05:23:46;;;;;;;2.30;0.73;;;6.00;99.90;;;;;;5037699;28;20218;-87
2023/12/12 05:26:12;;;;;;;0.53;0.53;;;5.90;99.90;;;;;;5004937;28;20613;-88
2023/12/12 05:28:38;;;;;;;0.67;0.67;;;5.90;99.90;;;;;;5037672;28;20214;-86
2023/12/12 05:31:04;;;;;;;0.60;0.60;;;5.80;99.90;;;;;;5038875;28;20174;-87
2023/12/12 05:33:29;;;;;;;0.23;0.23;;;5.80;99.90;;;;;;5037051;28;20240;-86
2023/12/12 05:35:55;;;;;;;0.50;0.50;;;5.70;99.90;;;;;;5020984;28;20732;-87
2023/12/12 05:38:21;;;;;;;1.67;0.80;;;5.80;99.90;;;;;;5037297;28;20248;-88
2023/12/12 05:40:47;;;;;;;0.87;0.87;;;5.80;99.90;;;;;;5004611;28;20317;-87
2023/12/12 05:43:12;;;;;;;1.70;1.63;;;5.70;99.90;;;;;;5020984;28;20694;-87
2023/12/12 05:45:38;;;;;;;0.53;0.40;;;5.50;99.90;;;;;;5004345;28;20275;-88
2023/12/12 05:48:04;;;;;;;0.30;0.30;;;5.60;99.90;;;;;;5020458;28;20297;-86
2023/12/12 05:50:30;;;;;;;1.03;1.03;;;5.60;99.90;;;;;;5004625;28;20214;-85
2023/12/12 05:52:56;;;;;;;0.97;0.97;;;5.50;99.90;;;;;;5020598;28;20214;-87
2023/12/12 05:55:22;;;;;;;0.40;0.40;;;5.60;99.90;;;;;;5020487;28;20188;-87
2023/12/12 05:57:48;;;;;;;0.63;0.63;;;5.50;99.90;;;;;;5021431;28;20221;-85
2023/12/12 06:00:14;;;;;;;1.90;1.60;;;5.50;99.90;;;;;;5054607;28;20305;-86
2023/12/12 06:02:41;;;;;;;0.80;0.80;;;5.30;99.90;;;;;;5053327;28;20218;-86
2023/12/12 06:05:07;;;;;;;2.63;1.93;;;5.30;99.90;;;;;;5036882;28;20565;-87
2023/12/12 06:07:37;;;;;;;0.67;0.50;;;5.50;99.90;;;;;;5054230;28;20201;-87
2023/12/12 06:10:04;;;;;;;1.07;0.97;;;5.30;99.90;;;;;;5021267;28;20501;-86
2023/12/12 06:12:31;;;;;;;2.13;0.93;;;5.50;99.90;;;;;;5004587;28;20233;-87
2023/12/12 06:14:56;;;;;;;1.67;1.57;;;5.40;99.90;;;;;;5020535;28;20265;-86
2023/12/12 06:17:23;;;;;;;1.17;1.17;;;5.50;99.90;;;;;;5003843;28;20265;-87
2023/12/12 06:19:49;;;;;;;2.13;1.13;;;5.50;99.90;;;;;;5020483;28;20230;-87
2023/12/12 06:22:15;;;;;;;0.50;0.50;;;5.40;99.90;;;;;;5020421;28;20174;-87
2023/12/12 06:24:41;;;;;;;1.80;1.17;;;5.30;99.90;;;;;;5004120;28;20298;-87
2023/12/12 06:27:07;;;;;;;0.77;0.77;;;5.40;99.90;;;;;;5035966;28;20221;-87
2023/12/12 06:29:32;;;;;;;1.13;1.13;;;5.30;99.90;;;;;;5019899;28;20229;-86
2023/12/12 06:31:58;;;;;;;1.57;0.67;;;5.40;99.90;;;;;;5030551;28;20219;-87
2023/12/12 06:34:24;;;;;;;1.20;1.20;;;5.50;99.90;;;;;;4984665;28;20206;-87
2023/12/12 06:36:51;;;;;;;1.93;1.40;;;5.60;99.90;;;;;;5020387;28;20217;-86
2023/12/12 06:39:16;;;;;;;13.77;1.47;;;5.40;99.90;;;;;;5019428;28;20289;-86
2023/12/12 06:41:42;;;;;;;1.20;1.20;;;5.40;99.90;;;;;;5019671;28;20248;-86
2023/12/12 06:44:08;;;;;;;1.20;0.70;;;5.50;99.90;;;;;;5053880;28;20229;-86
2023/12/12 06:46:34;;;;;;;0.60;0.60;;;5.80;99.90;;;;;;5053955;28;20616;-87
2023/12/12 06:49:00;;;;;;;1.30;1.20;;;5.80;99.90;;;;;;5037007;28;20623;-87
2023/12/12 06:51:25;;;;;;;1.03;1.03;;;5.80;99.90;;;;;;5036028;28;20589;-87
2023/12/12 06:53:52;;;;;;;0.90;0.90;;;5.80;99.90;;;;;;5002719;28;20256;-86
2023/12/12 06:56:20;;;;;;;1.07;1.07;;;5.90;99.90;;;;;;5019130;28;20230;-87
2023/12/12 06:58:48;;;;;;;1.23;1.17;;;5.70;99.90;;;;;;5035698;28;20238;-87
2023/12/12 07:01:14;;;;;;;1.20;0.87;;;5.60;99.90;;;;;;5003139;28;20178;-84
2023/12/12 07:03:39;;;;;;;1.57;1.47;;;5.70;99.90;;;;;;5018991;28;20218;-85
2023/12/12 07:06:06;;;;;;;0.83;0.83;;;5.50;99.90;;;;;;5035820;28;20256;-87
2023/12/12 07:08:32;;;;;;;1.70;1.63;;;5.60;99.90;;;;;;5035117;28;20273;-87
2023/12/12 07:10:58;;;;;;;1.07;0.70;;;5.60;99.90;;;;;;5035450;28;20225;-87
2023/12/12 07:13:23;;;;;;;2.00;1.90;;;5.40;99.90;;;;;;5035065;28;20182;-84
2023/12/12 07:15:49;;;;;;;1.23;1.13;;;5.50;99.90;;;;;;5015479;28;20314;-85
2023/12/12 07:18:15;;;;;;;1.93;1.83;;;5.50;99.90;;;;;;5031891;28;20248;-85
2023/12/12 07:20:41;;;;;;;1.90;0.67;;;5.40;99.90;;;;;;5032005;28;20222;-84
2023/12/12 07:23:07;;;;;;;1.83;1.73;;;5.40;99.90;;;;;;5031954;28;20252;-88
2023/12/12 07:25:34;;;;;;;1.30;1.20;;;5.60;99.90;;;;;;5048476;28;20185;-84
2023/12/12 07:28:00;;;;;;;1.17;1.13;;;5.40;99.90;;;;;;5049090;28;20278;-85
2023/12/12 07:30:27;;;;;;;2.53;1.17;;;5.10;99.90;;;;;;5015745;28;20222;-84
2023/12/12 07:32:54;;;;;;;0.80;0.80;;;4.80;99.90;;;;;;5031948;28;20293;-82
2023/12/12 07:35:20;;;;;;;1.20;1.20;;;4.90;99.90;;;;;;5030960;28;20585;-82
2023/12/12 07:37:46;;;;;;;1.07;0.90;;;5.20;99.90;;;;;;5048180;28;20226;-85
2023/12/12 07:40:13;;;;;;;0.47;0.47;;;5.40;99.90;;;;;;5048855;28;20186;-85
2023/12/12 07:42:39;;;;;;;3.20;1.10;;;5.30;99.90;;;;;;5031482;28;20223;-84
2023/12/12 07:45:07;;;;;;;22.17;1.60;;;5.50;99.90;;;;;;5031643;28;20572;-85
2023/12/12 07:47:33;;;;;;;0.90;0.90;;;5.60;99.90;;;;;;5031247;28;20674;-83
2023/12/12 07:49:59;;;;;;;0.70;0.70;;;5.70;99.90;;;;;;5047609;28;20245;-80
2023/12/12 07:52:26;;;;;;;1.33;1.23;;;5.80;99.90;;;;;;5031021;28;20178;-82
2023/12/12 07:54:52;;;;;;;1.30;1.30;;;5.90;99.90;;;;;;5017095;28;20175;-84
2023/12/12 07:57:17;;;;;;;1.30;1.30;;;6.00;99.90;;;;;;5031167;28;20235;-83
2023/12/12 07:59:44;;;;;;;3.00;2.53;;;6.00;99.90;;;;;;5031727;28;20229;-84
2023/12/12 08:02:10;;;;;;;1.20;0.87;;;6.00;99.90;;;;;;5031468;28;20214;-83
2023/12/12 08:04:36;;;;;;;1.80;1.70;;;6.00;99.90;;;;;;5031821;28;20495;-83
2023/12/12 08:07:03;;;;;;;1.03;1.03;;;6.10;99.90;;;;;;5048514;28;20315;-85
2023/12/12 08:09:32;;;;;;;2.27;1.90;;;6.00;99.90;;;;;;5032730;28;20271;-84
2023/12/12 08:11:58;;;;;;;3.60;3.37;;;6.00;99.90;;;;;;5032487;28;20627;-84
2023/12/12 08:14:24;;;;;;;7.80;2.97;;;6.10;99.90;;;;;;5031211;28;20214;-84
2023/12/12 08:16:49;;;;;;;3.03;1.70;;;6.20;99.90;;;;;;5018708;28;20774;-85
2023/12/12 08:19:16;;;;;;;1.90;1.80;;;6.30;99.90;;;;;;5019135;28;20325;-85
2023/12/12 08:21:41;;;;;;;2.77;2.37;;;6.10;99.90;;;;;;5017967;28;20214;-84
2023/12/12 08:24:07;;;;;;;2.57;1.83;;;6.30;99.90;;;;;;5018318;28;20699;-84
2023/12/12 08:26:41;;;;;;;9.53;3.83;;;6.50;99.90;;;;;;5024785;28;20220;-85
2023/12/12 08:29:08;;;;;;;0.80;0.80;;;6.50;99.90;;;;;;5034217;28;20226;-84
2023/12/12 08:31:34;;;;;;;1.80;1.70;;;6.40;99.90;;;;;;5034643;28;20182;-85
2023/12/12 08:34:10;;;;;;;8.97;2.10;;;6.70;99.90;;;;;;5018940;28;20611;-85
2023/12/12 08:36:35;;;;;;;3.60;3.33;;;6.70;99.90;;;;;;5051994;28;20257;-82
2023/12/12 08:39:01;;;;;;;2.27;2.07;;;6.60;99.90;;;;;;5034643;28;20229;-83
2023/12/12 08:41:30;;;;;;;2.67;2.47;;;6.70;99.90;;;;;;5018453;28;20646;-83
2023/12/12 08:43:57;;;;;;;2.33;2.03;;;6.60;99.90;;;;;;5017722;28;20221;-83
2023/12/12 08:46:26;;;;;;;2.63;1.77;;;6.50;99.90;;;;;;5021268;28;20269;-83
2023/12/12 08:48:54;;;;;;;2.57;2.17;;;6.70;99.90;;;;;;5022808;28;20278;-85
2023/12/12 08:51:20;;;;;;;3.20;2.37;;;6.70;99.90;;;;;;5021168;28;20272;-84
2023/12/12 08:53:45;;;;;;;3.97;2.70;;;6.70;99.90;;;;;;5037456;28;20218;-84
2023/12/12 08:56:14;;;;;;;2.10;2.00;;;6.70;99.90;;;;;;5020631;28;20240;-84
2023/12/12 08:58:40;;;;;;;1.53;1.53;;;6.40;99.90;;;;;;5021416;28;20218;-83
2023/12/12 09:01:06;;;;;;;1.57;1.47;;;6.60;99.90;;;;;;5021414;28;20174;-84
2023/12/12 09:03:32;;;;;;;2.10;1.97;;;6.20;99.90;;;;;;5020421;28;20218;-82
2023/12/12 09:05:58;;;;;;;5.00;2.60;;;6.50;99.90;;;;;;5020764;28;20309;-84
2023/12/12 09:08:23;;;;;;;2.63;2.47;;;6.40;99.90;;;;;;5036994;28;20681;-85
2023/12/12 09:10:49;;;;;;;2.80;2.13;;;6.30;99.90;;;;;;5020992;28;20724;-86
2023/12/12 09:13:15;;;;;;;2.40;1.77;;;6.40;99.90;;;;;;5021258;28;20210;-85
2023/12/12 09:15:41;;;;;;;1.50;1.47;;;6.30;99.90;;;;;;5020774;28;20238;-84
2023/12/12 09:18:06;;;;;;;1.03;1.03;;;6.20;99.90;;;;;;5021002;28;20277;-84
2023/12/12 09:20:32;;;;;;;1.33;1.33;;;6.10;99.90;;;;;;5037349;28;20214;-86
2023/12/12 09:22:58;;;;;;;1.13;1.13;;;6.20;99.90;;;;;;5017505;28;20223;-84
2023/12/12 09:25:24;;;;;;;4.00;1.67;;;6.30;99.90;;;;;;5017124;28;20537;-86
2023/12/12 09:27:50;;;;;;;3.57;3.27;;;6.30;99.90;;;;;;5001867;28;20595;-88
2023/12/12 09:30:16;;;;;;;1.60;1.50;;;6.30;99.90;;;;;;5017334;28;20271;-88
2023/12/12 09:32:42;;;;;;;1.67;1.60;;;6.30;99.90;;;;;;5020764;28;20305;-87
2023/12/12 09:35:09;;;;;;;3.53;3.33;;;6.10;99.90;;;;;;5004381;28;20295;-86
2023/12/12 09:37:35;;;;;;;3.03;2.87;;;6.30;99.90;;;;;;5036716;28;20206;-89
2023/12/12 09:40:02;;;;;;;1.77;1.67;;;6.30;99.90;;;;;;5037735;28;20190;-90
2023/12/12 09:42:32;;;;;;;3.50;3.20;;;6.20;99.90;;;;;;5021244;28;20646;-87
2023/12/12 09:45:00;;;;;;;1.53;1.37;;;6.30;99.90;;;;;;5054759;28;20224;-88
2023/12/12 09:47:31;;;;;;;1.27;1.20;;;6.10;99.90;;;;;;5036931;28;20540;-89
2023/12/12 09:49:58;;;;;;;21.53;3.57;;;6.30;99.90;;;;;;5053735;28;20241;-86
2023/12/12 09:52:31;;;;;;;1.40;1.40;;;6.30;99.90;;;;;;5020325;28;20181;-87
2023/12/12 09:54:59;;;;;;;1.57;1.47;;;6.20;99.90;;;;;;5040158;28;20173;-89
2023/12/12 09:57:28;;;;;;;5.43;2.73;;;6.40;99.90;;;;;;5045999;28;20217;-89
2023/12/12 09:59:54;;;;;;;1.63;1.53;;;6.30;99.90;;;;;;5028356;28;20221;-88
2023/12/12 10:02:27;;;;;;;1.47;1.47;;;6.50;99.90;;;;;;5036932;28;20229;-89
2023/12/12 10:04:54;;;;;;;23.70;1.37;;;6.30;99.90;;;;;;5053468;28;20225;-89
2023/12/12 10:07:24;;;;;;;2.27;2.17;;;6.50;99.90;;;;;;5036670;28;20202;-88
2023/12/12 10:09:50;;;;;;;3.33;3.03;;;6.50;99.90;;;;;;5037756;28;20618;-93
2023/12/12 10:12:17;;;;;;;3.13;2.87;;;6.50;99.90;;;;;;5037194;28;20217;-90
2023/12/12 10:14:47;;;;;;;1.17;1.13;;;6.60;99.90;;;;;;5003979;28;20308;-89
2023/12/12 10:17:14;;;;;;;3.37;1.17;;;6.30;99.90;;;;;;5021118;28;20237;-89
2023/12/12 10:19:40;;;;;;;2.07;1.23;;;6.30;99.90;;;;;;5003453;28;20221;-89
2023/12/12 10:22:08;;;;;;;3.33;2.17;;;6.50;99.90;;;;;;5020702;28;20179;-89
2023/12/12 10:24:35;;;;;;;3.40;2.10;;;6.40;99.90;;;;;;5036886;28;20225;-88
2023/12/12 10:27:04;;;;;;;2.30;2.13;;;6.60;99.90;;;;;;5036783;28;20218;-89
2023/12/12 10:29:33;;;;;;;6.60;3.60;;;6.40;99.90;;;;;;5036370;28;20218;-89
2023/12/12 10:32:00;;;;;;;1.03;1.03;;;6.50;99.90;;;;;;5003396;28;20220;-87
2023/12/12 10:34:30;;;;;;;3.83;1.80;;;6.50;99.90;;;;;;5036029;28;20182;-89
2023/12/12 10:36:58;;;;;;;1.83;1.73;;;6.30;99.90;;;;;;5021056;28;20205;-90
2023/12/12 10:39:30;;;;;;;0.83;0.83;;;6.40;99.90;;;;;;5036377;28;20299;-87
2023/12/12 10:41:56;;;;;;;1.03;0.83;;;6.40;99.90;;;;;;5052992;28;20218;-90
2023/12/12 10:44:32;;;;;;;2.57;2.37;;;6.50;99.90;;;;;;5035837;28;20249;-89
2023/12/12 10:47:05;;;;;;;2.17;2.10;;;6.50;99.90;;;;;;5036003;28;20670;-88
2023/12/12 10:49:32;;;;;;;2.93;2.73;;;6.30;99.90;;;;;;5053602;28;20181;-88
2023/12/12 10:52:01;;;;;;;1.03;1.00;;;6.50;99.90;;;;;;5020155;28;20671;-88
2023/12/12 10:54:31;;;;;;;0.63;0.63;;;6.40;99.90;;;;;;5053379;28;20218;-88
2023/12/12 10:56:59;;;;;;;2.33;2.20;;;6.40;99.90;;;;;;5053331;28;20245;-90
2023/12/12 10:59:27;;;;;;;1.20;1.17;;;6.40;99.90;;;;;;5053085;28;20217;-87
2023/12/12 11:01:54;;;;;;;0.83;0.80;;;6.30;99.90;;;;;;5036058;28;20230;-86
2023/12/12 11:04:23;;;;;;;2.83;1.63;;;6.50;99.90;;;;;;5035560;28;20174;-87
2023/12/12 11:06:51;;;;;;;2.47;2.27;;;6.40;99.90;;;;;;5036306;28;20186;-87
2023/12/12 11:09:18;;;;;;;0.83;0.83;;;6.60;99.90;;;;;;5034865;28;20229;-87
2023/12/12 11:11:47;;;;;;;1.40;1.17;;;6.70;99.90;;;;;;5052481;28;20209;-87
2023/12/12 11:14:15;;;;;;;1.93;0.97;;;6.70;99.90;;;;;;5035541;28;20210;-88
2023/12/12 11:16:43;;;;;;;2.33;2.23;;;6.70;99.90;;;;;;5035086;28;20233;-87
2023/12/12 11:19:18;;;;;;;5.10;3.00;;;6.80;99.90;;;;;;5019360;28;20196;-88
2023/12/12 11:21:48;;;;;;;2.57;1.57;;;6.90;99.90;;;;;;5035679;28;20595;-88
2023/12/12 11:24:18;;;;;;;2.47;2.27;;;7.00;99.90;;;;;;5019311;28;20210;-90
2023/12/12 11:26:46;;;;;;;3.50;2.13;;;7.20;99.90;;;;;;5051742;28;20600;-88
2023/12/12 11:29:14;;;;;;;3.03;2.87;;;7.00;99.90;;;;;;5035276;28;20225;-90
2023/12/12 11:32:00;;;;;;;4.93;1.93;;;7.20;99.90;;;;;;5019609;28;20209;-89
2023/12/12 11:34:38;;;;;;;1.50;1.40;;;7.20;99.90;;;;;;5035492;28;20174;-88
2023/12/12 11:37:04;;;;;;;1.83;1.63;;;7.10;99.90;;;;;;5035823;28;20197;-87
2023/12/12 11:39:44;;;;;;;0.80;0.80;;;7.10;99.90;;;;;;5019240;28;20210;-88
2023/12/12 11:42:21;;;;;;;0.83;0.83;;;7.20;99.90;;;;;;5035143;28;20685;-89
2023/12/12 11:44:54;;;;;;;1.40;1.37;;;7.40;99.90;;;;;;5035197;28;20273;-88
2023/12/12 11:47:24;;;;;;;1.73;1.63;;;7.40;99.90;;;;;;5019099;28;20221;-88
2023/12/12 11:50:10;;;;;;;2.30;2.20;;;7.50;99.90;;;;;;5019463;28;20214;-89
2023/12/12 11:52:39;;;;;;;1.07;1.07;;;7.60;99.90;;;;;;5021305;28;20253;-88
2023/12/12 11:55:06;;;;;;;1.60;1.13;;;7.60;99.90;;;;;;5053719;28;20182;-87
2023/12/12 11:57:32;;;;;;;1.70;1.33;;;7.50;99.90;;;;;;5052917;28;20225;-88
2023/12/12 12:00:05;;;;;;;3.17;2.67;;;7.70;99.90;;;;;;5019042;28;20638;-87
2023/12/12 12:02:31;;;;;;;0.50;0.50;;;7.50;99.90;;;;;;5052299;28;20267;-86
2023/12/12 12:04:58;;;;;;;1.23;1.13;;;7.60;99.90;;;;;;5035498;28;20568;-86
2023/12/12 12:07:24;;;;;;;1.70;1.60;;;7.60;99.90;;;;;;5018760;28;20182;-86
2023/12/12 12:09:52;;;;;;;1.93;1.67;;;7.60;99.90;;;;;;5018899;28;20194;-88
2023/12/12 12:12:19;;;;;;;3.67;2.07;;;7.50;99.90;;;;;;5051954;28;20217;-90
2023/12/12 12:14:45;;;;;;;2.53;1.93;;;7.60;99.90;;;;;;5018617;28;20213;-90
2023/12/12 12:17:11;;;;;;;1.30;1.20;;;7.70;99.90;;;;;;5018528;28;20245;-89
2023/12/12 12:19:38;;;;;;;4.87;2.20;;;7.80;99.90;;;;;;5007029;28;20269;-89
2023/12/12 12:22:09;;;;;;;5.93;2.23;;;7.80;99.90;;;;;;5070096;28;20171;-89
2023/12/12 12:24:47;;;;;;;0.97;0.93;;;7.80;99.90;;;;;;5033554;28;20206;-89
2023/12/12 12:27:14;;;;;;;2.37;2.27;;;7.80;99.90;;;;;;5022414;28;20224;-89
2023/12/12 12:29:40;;;;;;;0.50;0.50;;;7.90;99.90;;;;;;5038347;28;20245;-87
2023/12/12 12:32:17;;;;;;;1.57;1.47;;;7.90;99.90;;;;;;5055599;28;20642;-88
2023/12/12 12:34:43;;;;;;;4.00;3.43;;;8.00;99.90;;;;;;5038293;28;20221;-89
2023/12/12 12:37:37;;;;;;;5.17;3.07;;;7.90;99.90;;;;;;5022314;28;20273;-88
2023/12/12 12:40:04;;;;;;;1.10;1.10;;;7.90;99.90;;;;;;5056327;28;20282;-89
2023/12/12 12:42:34;;;;;;;1.07;0.97;;;7.80;99.90;;;;;;5037861;28;20218;-91
2023/12/12 12:45:04;;;;;;;2.43;2.23;;;7.80;99.90;;;;;;5005575;28;20214;-89
2023/12/12 12:47:31;;;;;;;1.73;1.40;;;7.80;99.90;;;;;;5054638;28;20360;-87
2023/12/12 12:49:58;;;;;;;1.60;1.50;;;8.00;99.90;;;;;;5038093;28;20217;-88
2023/12/12 12:52:25;;;;;;;1.30;1.30;;;7.90;99.90;;;;;;5005476;28;20174;-87
2023/12/12 12:54:51;;;;;;;2.43;2.33;;;7.90;99.90;;;;;;5022459;28;20174;-86
2023/12/12 12:57:16;;;;;;;1.57;1.53;;;8.00;99.90;;;;;;5021182;28;20232;-89